Time;durP1;ratioP1;P1;durP2;ratioP2;P2;SDS_P1;SDS_P2;PMS_P1;PMS_P2;Temp;Humidity;BMP_temperature;BMP_pressure;BME280_temperature;BME280_humidity;BME280_pressure;Samples;Min_cycle;Max_cycle;Signal;HPM_P1;HPM_P2
2021/08/28 00:00:20;;;;;;;14.18;10.23;;;;;;;-140.79;100.00;63287.88;5005587;28;20424;-75
2021/08/28 00:02:45;;;;;;;13.85;9.98;;;;;;;-140.79;100.00;63287.88;5007528;28;20083;-74
2021/08/28 00:05:11;;;;;;;14.48;9.90;;;;;;;-140.79;100.00;63287.88;5007517;28;20408;-74
2021/08/28 00:07:36;;;;;;;14.27;10.07;;;;;;;-140.79;100.00;63287.88;5006848;28;20550;-74
2021/08/28 00:10:04;;;;;;;18.02;10.57;;;;;;;-140.79;100.00;63287.88;5007339;28;20531;-73
2021/08/28 00:12:30;;;;;;;13.20;9.82;;;;;;;-140.79;100.00;63287.88;5006695;28;20512;-74
2021/08/28 00:14:56;;;;;;;13.82;10.00;;;;;;;-140.79;100.00;63287.88;5006995;28;20026;-75
2021/08/28 00:17:22;;;;;;;15.20;10.20;;;;;;;-140.79;100.00;63287.88;5006796;28;20120;-75
2021/08/28 00:19:47;;;;;;;14.43;9.50;;;;;;;-140.79;100.00;63287.88;5006892;28;20554;-74
2021/08/28 00:22:12;;;;;;;15.27;10.13;;;;;;;-140.79;100.00;63287.88;5005514;28;20068;-74
2021/08/28 00:24:38;;;;;;;15.15;10.80;;;;;;;-140.79;100.00;63287.88;5005759;28;20030;-75
2021/08/28 00:27:03;;;;;;;14.10;9.48;;;;;;;-140.79;100.00;63287.88;5006922;28;20096;-75
2021/08/28 00:29:29;;;;;;;13.27;9.77;;;;;;;-140.79;100.00;63287.88;5006527;28;20033;-74
2021/08/28 00:31:54;;;;;;;14.50;9.73;;;;;;;-140.79;100.00;63287.88;5005233;28;20036;-75
2021/08/28 00:34:20;;;;;;;12.90;9.63;;;;;;;-140.79;100.00;63287.88;5006499;28;20034;-73
2021/08/28 00:36:45;;;;;;;13.38;10.00;;;;;;;-140.79;100.00;63287.88;5005419;28;20018;-74
2021/08/28 00:39:11;;;;;;;13.10;10.32;;;;;;;-140.79;100.00;63287.88;5006515;28;20022;-74
2021/08/28 00:41:36;;;;;;;13.43;9.48;;;;;;;-140.79;100.00;63287.88;5006180;28;20049;-74
2021/08/28 00:44:02;;;;;;;14.38;10.13;;;;;;;-140.79;100.00;63287.88;5006213;28;20037;-74
2021/08/28 00:46:28;;;;;;;15.85;10.77;;;;;;;-140.79;100.00;63287.88;5005325;28;20033;-75
2021/08/28 00:48:53;;;;;;;11.93;8.77;;;;;;;-140.79;100.00;63287.88;5005291;28;20038;-75
2021/08/28 00:51:19;;;;;;;13.85;9.82;;;;;;;-140.79;100.00;63287.88;4999558;28;20037;-75
2021/08/28 00:53:45;;;;;;;13.18;9.73;;;;;;;-140.79;100.00;63287.88;5006204;28;20053;-74
2021/08/28 00:56:10;;;;;;;13.60;9.82;;;;;;;-140.79;100.00;63287.88;4988768;28;20042;-75
2021/08/28 00:58:36;;;;;;;15.00;9.63;;;;;;;-140.79;100.00;63287.88;5004691;28;20052;-74
2021/08/28 01:01:12;;;;;;;12.75;8.75;;;;;;;-140.79;100.00;63287.88;5005025;28;20038;-74
2021/08/28 01:03:38;;;;;;;14.63;9.70;;;;;;;-140.79;100.00;63287.88;5002400;28;20025;-75
2021/08/28 01:06:27;;;;;;;13.63;9.30;;;;;;;-140.79;100.00;63287.88;5005211;28;20091;-75
2021/08/28 01:09:13;;;;;;;14.60;9.10;;;;;;;-140.79;100.00;63287.88;5017362;28;20487;-74
2021/08/28 01:11:56;;;;;;;13.77;9.48;;;;;;;-140.79;100.00;63287.88;4986658;28;20030;-74
2021/08/28 01:14:26;;;;;;;15.68;9.70;;;;;;;-140.79;100.00;63287.88;4968755;28;20754;-75
2021/08/28 01:16:54;;;;;;;14.23;9.43;;;;;;;-140.79;100.00;63287.88;4985478;28;20049;-74
2021/08/28 01:19:35;;;;;;;12.95;9.30;;;;;;;-140.79;100.00;63287.88;4985075;28;20037;-73
2021/08/28 01:22:01;;;;;;;14.93;10.00;;;;;;;-140.79;100.00;63287.88;4986207;28;20532;-74
2021/08/28 01:24:27;;;;;;;14.07;9.48;;;;;;;-140.79;100.00;63287.88;4994254;28;20542;-74
2021/08/28 01:26:59;;;;;;;15.48;9.50;;;;;;;-140.79;100.00;63287.88;5004725;28;20037;-74
2021/08/28 01:29:27;;;;;;;13.95;9.85;;;;;;;-140.79;100.00;63287.88;5003459;28;20415;-74
2021/08/28 01:31:53;;;;;;;14.57;10.00;;;;;;;-140.79;100.00;63287.88;5020164;28;20099;-75
2021/08/28 01:34:18;;;;;;;11.88;8.82;;;;;;;-140.79;100.00;63287.88;5020325;28;20026;-75
2021/08/28 01:36:47;;;;;;;12.43;9.02;;;;;;;-140.79;100.00;63287.88;5004769;28;20026;-74
2021/08/28 01:39:13;;;;;;;12.60;9.10;;;;;;;-140.79;100.00;63287.88;5005961;28;20026;-75
2021/08/28 01:41:39;;;;;;;13.85;9.15;;;;;;;-140.79;100.00;63287.88;5004044;28;20136;-75
2021/08/28 01:44:07;;;;;;;14.27;9.60;;;;;;;-140.79;100.00;63287.88;5004164;28;20058;-75
2021/08/28 01:46:33;;;;;;;13.82;9.20;;;;;;;-140.79;100.00;63287.88;4986172;28;20065;-74
2021/08/28 01:48:58;;;;;;;14.65;9.30;;;;;;;-140.79;100.00;63287.88;5003654;28;20022;-73
2021/08/28 01:51:24;;;;;;;12.88;9.38;;;;;;;-140.79;100.00;63287.88;5003304;28;20072;-74
2021/08/28 01:53:49;;;;;;;13.13;8.85;;;;;;;-140.79;100.00;63287.88;5003749;28;20265;-75
2021/08/28 01:56:15;;;;;;;12.85;9.20;;;;;;;-140.79;100.00;63287.88;5005286;28;20124;-75
2021/08/28 01:58:40;;;;;;;13.07;9.02;;;;;;;-140.79;100.00;63287.88;5005907;28;20045;-74
2021/08/28 02:01:06;;;;;;;13.45;8.63;;;;;;;-140.79;100.00;63287.88;5004307;28;20033;-75
2021/08/28 02:03:31;;;;;;;13.68;9.00;;;;;;;-140.79;100.00;63287.88;5019632;28;20030;-73
2021/08/28 02:06:06;;;;;;;14.18;9.68;;;;;;;-140.79;100.00;63287.88;5004039;28;20113;-73
2021/08/28 02:08:46;;;;;;;12.70;9.20;;;;;;;-140.79;100.00;63287.88;4987174;28;20041;-73
2021/08/28 02:11:18;;;;;;;13.02;8.95;;;;;;;-140.79;100.00;63287.88;5001545;28;20029;-73
2021/08/28 02:13:50;;;;;;;21.77;9.23;;;;;;;-140.79;100.00;63287.88;4987613;28;20026;-73
2021/08/28 02:16:16;;;;;;;13.18;8.45;;;;;;;-140.79;100.00;63287.88;5006955;28;20041;-74
2021/08/28 02:18:46;;;;;;;12.93;8.93;;;;;;;-140.79;100.00;63287.88;5007188;28;20129;-73
2021/08/28 02:21:11;;;;;;;14.80;8.83;;;;;;;-140.79;100.00;63287.88;4992372;28;20534;-74
2021/08/28 02:23:42;;;;;;;14.45;9.40;;;;;;;-140.79;100.00;63287.88;4990801;28;20030;-74
2021/08/28 02:26:14;;;;;;;16.42;9.55;;;;;;;-140.79;100.00;63287.88;5009496;28;20025;-74
2021/08/28 02:28:47;;;;;;;13.73;9.00;;;;;;;-140.79;100.00;63287.88;4992325;28;20041;-75
2021/08/28 02:31:12;;;;;;;12.98;8.82;;;;;;;-140.79;100.00;63287.88;4992281;28;20576;-74
2021/08/28 02:33:38;;;;;;;14.60;9.00;;;;;;;-140.79;100.00;63287.88;4989216;28;20121;-74
2021/08/28 02:36:03;;;;;;;12.57;8.75;;;;;;;-140.79;100.00;63287.88;4990837;28;20339;-74
2021/08/28 02:38:29;;;;;;;12.70;8.45;;;;;;;-140.79;100.00;63287.88;5006254;28;20033;-74
2021/08/28 02:40:56;;;;;;;13.82;9.30;;;;;;;-140.79;100.00;63287.88;5005463;28;20061;-74
2021/08/28 02:43:21;;;;;;;13.48;8.73;;;;;;;-140.79;100.00;63287.88;5007033;28;20025;-74
2021/08/28 02:45:48;;;;;;;12.77;9.35;;;;;;;-140.79;100.00;63287.88;5022831;28;20452;-73
2021/08/28 02:48:17;;;;;;;14.43;9.70;;;;;;;-140.79;100.00;63287.88;5007912;28;20032;-75
2021/08/28 02:50:42;;;;;;;14.50;9.85;;;;;;;-140.79;100.00;63287.88;5023510;28;20473;-74
2021/08/28 02:53:08;;;;;;;15.73;9.80;;;;;;;-140.79;100.00;63287.88;5007536;28;20041;-74
2021/08/28 02:55:33;;;;;;;16.33;9.75;;;;;;;-140.79;100.00;63287.88;4993683;28;20026;-74
2021/08/28 02:57:59;;;;;;;13.18;9.30;;;;;;;-140.79;100.00;63287.88;5007228;28;20056;-74
2021/08/28 03:00:24;;;;;;;13.65;9.20;;;;;;;-140.79;100.00;63287.88;5005812;28;20412;-75
2021/08/28 03:02:49;;;;;;;14.57;9.20;;;;;;;-140.79;100.00;63287.88;5008146;28;20440;-75
2021/08/28 03:05:15;;;;;;;14.88;9.88;;;;;;;-140.79;100.00;63287.88;5008560;28;20036;-74
2021/08/28 03:07:40;;;;;;;12.95;9.23;;;;;;;-140.79;100.00;63287.88;5005370;28;20033;-74
2021/08/28 03:10:07;;;;;;;16.45;9.73;;;;;;;-140.79;100.00;63287.88;5008321;28;20076;-74
2021/08/28 03:12:33;;;;;;;13.88;9.20;;;;;;;-140.79;100.00;63287.88;5008178;28;20076;-75
2021/08/28 03:14:58;;;;;;;13.68;9.15;;;;;;;-140.79;100.00;63287.88;5006623;28;20045;-75
2021/08/28 03:17:24;;;;;;;14.63;9.45;;;;;;;-140.79;100.00;63287.88;5006918;28;20018;-75
2021/08/28 03:19:49;;;;;;;13.55;9.02;;;;;;;-140.79;100.00;63287.88;4987642;28;20030;-75
2021/08/28 03:22:15;;;;;;;16.50;9.57;;;;;;;-140.79;100.00;63287.88;5007011;28;20080;-75
2021/08/28 03:24:41;;;;;;;13.73;9.05;;;;;;;-140.79;100.00;63287.88;5006855;28;20038;-75
2021/08/28 03:27:06;;;;;;;15.65;9.25;;;;;;;-140.79;100.00;63287.88;5022094;28;20566;-75
2021/08/28 03:29:32;;;;;;;14.00;10.00;;;;;;;-140.79;100.00;63287.88;4996291;28;20038;-75
2021/08/28 03:31:59;;;;;;;13.48;8.82;;;;;;;-140.79;100.00;63287.88;4986724;28;20023;-75
2021/08/28 03:34:24;;;;;;;15.02;9.82;;;;;;;-140.79;100.00;63287.88;4988009;28;20025;-75
2021/08/28 03:36:50;;;;;;;13.30;9.25;;;;;;;-140.79;100.00;63287.88;4988649;28;20042;-75
2021/08/28 03:39:15;;;;;;;12.98;9.50;;;;;;;-140.79;100.00;63287.88;4987114;28;20050;-75
2021/08/28 03:41:41;;;;;;;15.85;10.52;;;;;;;-140.79;100.00;63287.88;5005037;28;20064;-74
2021/08/28 03:44:12;;;;;;;14.90;9.13;;;;;;;-140.79;100.00;63287.88;5004614;28;20060;-74
2021/08/28 03:46:37;;;;;;;14.65;9.77;;;;;;;-140.79;100.00;63287.88;5005312;28;20424;-74
2021/08/28 03:49:02;;;;;;;15.35;9.20;;;;;;;-140.79;100.00;63287.88;4988478;28;20025;-74
2021/08/28 03:51:28;;;;;;;13.27;9.40;;;;;;;-140.79;100.00;63287.88;5007931;28;20044;-73
2021/08/28 03:53:54;;;;;;;15.25;9.25;;;;;;;-140.79;100.00;63287.88;5006952;28;20080;-74
2021/08/28 03:56:19;;;;;;;14.63;9.35;;;;;;;-140.79;100.00;63287.88;5006510;28;20029;-74
2021/08/28 03:58:44;;;;;;;14.43;10.02;;;;;;;-140.79;100.00;63287.88;5008025;28;20034;-74
2021/08/28 04:01:10;;;;;;;15.40;9.52;;;;;;;-140.79;100.00;63287.88;4990147;28;20085;-76
2021/08/28 04:03:35;;;;;;;14.27;9.40;;;;;;;-140.79;100.00;63287.88;5006247;28;20511;-76
2021/08/28 04:06:01;;;;;;;14.57;8.95;;;;;;;-140.79;100.00;63287.88;5006141;28;20041;-75
2021/08/28 04:08:26;;;;;;;14.25;9.27;;;;;;;-140.79;100.00;63287.88;5005449;28;20041;-75
2021/08/28 04:10:51;;;;;;;13.88;9.40;;;;;;;-140.79;100.00;63287.88;5007185;28;20500;-76
2021/08/28 04:13:17;;;;;;;13.55;9.13;;;;;;;-140.79;100.00;63287.88;5007533;28;20420;-75
2021/08/28 04:15:42;;;;;;;14.10;8.90;;;;;;;-140.79;100.00;63287.88;5022153;28;20092;-75
2021/08/28 04:18:08;;;;;;;13.70;9.30;;;;;;;-140.79;100.00;63287.88;5007437;28;20073;-75
2021/08/28 04:20:33;;;;;;;14.40;9.50;;;;;;;-140.79;100.00;63287.88;5005181;28;20835;-74
2021/08/28 04:22:59;;;;;;;13.95;9.63;;;;;;;-140.79;100.00;63287.88;5005402;28;20041;-75
2021/08/28 04:25:25;;;;;;;14.85;9.93;;;;;;;-140.79;100.00;63287.88;4989116;28;20029;-75
2021/08/28 04:27:51;;;;;;;14.60;9.77;;;;;;;-140.79;100.00;63287.88;5005350;28;20053;-74
2021/08/28 04:30:17;;;;;;;15.02;9.18;;;;;;;-140.79;100.00;63287.88;5004511;28;20018;-74
2021/08/28 04:32:42;;;;;;;15.05;9.73;;;;;;;-140.79;100.00;63287.88;5006956;28;20041;-74
2021/08/28 04:35:08;;;;;;;13.48;8.90;;;;;;;-140.79;100.00;63287.88;5006663;28;20032;-75
2021/08/28 04:37:33;;;;;;;15.00;10.20;;;;;;;-140.79;100.00;63287.88;5007062;28;20080;-74
2021/08/28 04:39:59;;;;;;;14.73;10.02;;;;;;;-140.79;100.00;63287.88;5006184;28;20029;-74
2021/08/28 04:42:24;;;;;;;16.25;10.77;;;;;;;-140.79;100.00;63287.88;5006394;28;20049;-73
2021/08/28 04:44:53;;;;;;;17.42;10.77;;;;;;;-140.79;100.00;63287.88;5002130;28;20038;-77
2021/08/28 04:47:19;;;;;;;15.98;10.27;;;;;;;-140.79;100.00;63287.88;5006171;28;20030;-78
2021/08/28 04:49:45;;;;;;;19.45;11.50;;;;;;;-140.79;100.00;63287.88;5006023;28;20080;-78
2021/08/28 04:52:10;;;;;;;17.30;11.30;;;;;;;-140.79;100.00;63287.88;5006300;28;20025;-77
2021/08/28 04:54:35;;;;;;;17.98;10.63;;;;;;;-140.79;100.00;63287.88;5006390;28;20018;-79
2021/08/28 04:57:01;;;;;;;16.23;11.23;;;;;;;-140.79;100.00;63287.88;5003897;28;20127;-77
2021/08/28 04:59:26;;;;;;;15.25;10.18;;;;;;;-140.79;100.00;63287.88;5003185;28;20053;-78
2021/08/28 05:01:53;;;;;;;16.17;10.73;;;;;;;-140.79;100.00;63287.88;5005707;28;20041;-75
2021/08/28 05:04:19;;;;;;;19.05;11.23;;;;;;;-140.79;100.00;63287.88;5006132;28;20491;-75
2021/08/28 05:06:44;;;;;;;14.48;10.02;;;;;;;-140.79;100.00;63287.88;5005799;28;20034;-76
2021/08/28 05:09:09;;;;;;;18.50;10.85;;;;;;;-140.79;100.00;63287.88;5017070;28;20029;-75
2021/08/28 05:11:35;;;;;;;16.55;10.25;;;;;;;-140.79;100.00;63287.88;5010536;28;20456;-75
2021/08/28 05:14:00;;;;;;;14.88;9.35;;;;;;;-140.79;100.00;63287.88;5012085;28;20030;-77
2021/08/28 05:16:26;;;;;;;17.90;10.50;;;;;;;-140.79;100.00;63287.88;5005841;28;20029;-77
2021/08/28 05:18:51;;;;;;;15.75;10.20;;;;;;;-140.79;100.00;63287.88;5005881;28;20026;-77
2021/08/28 05:21:17;;;;;;;16.73;9.68;;;;;;;-140.79;100.00;63287.88;5004741;28;20036;-77
2021/08/28 05:23:42;;;;;;;14.80;9.48;;;;;;;-140.79;100.00;63287.88;5004282;28;20030;-79
2021/08/28 05:26:08;;;;;;;15.57;9.77;;;;;;;-140.79;100.00;63287.88;5006048;28;20030;-75
2021/08/28 05:28:33;;;;;;;16.92;10.15;;;;;;;-140.79;100.00;63287.88;5005754;28;20037;-78
2021/08/28 05:30:58;;;;;;;21.10;10.73;;;;;;;-140.79;100.00;63287.88;5004417;28;20034;-73
2021/08/28 05:33:24;;;;;;;17.23;10.27;;;;;;;-140.79;100.00;63287.88;5004529;28;20624;-75
2021/08/28 05:35:49;;;;;;;16.25;10.13;;;;;;;-140.79;100.00;63287.88;5005671;28;20026;-74
2021/08/28 05:38:15;;;;;;;17.65;11.18;;;;;;;-140.79;100.00;63287.88;4991385;28;20018;-74
2021/08/28 05:40:40;;;;;;;17.30;10.45;;;;;;;-140.79;100.00;63287.88;5005637;28;20021;-76
2021/08/28 05:43:06;;;;;;;18.65;10.77;;;;;;;-140.79;100.00;63287.88;5000744;28;20029;-74
2021/08/28 05:45:31;;;;;;;15.48;10.15;;;;;;;-140.79;100.00;63287.88;4998184;28;20018;-77
2021/08/28 05:47:56;;;;;;;15.95;10.70;;;;;;;-140.79;100.00;63287.88;5003344;28;20029;-75
2021/08/28 05:50:22;;;;;;;16.45;10.23;;;;;;;-140.79;100.00;63287.88;5013251;28;20021;-75
2021/08/28 05:52:47;;;;;;;16.48;10.57;;;;;;;-140.79;100.00;63287.88;5009718;28;20037;-74
2021/08/28 05:55:14;;;;;;;18.73;11.10;;;;;;;-140.79;100.00;63287.88;5002583;28;20029;-75
2021/08/28 05:57:41;;;;;;;15.63;9.85;;;;;;;-140.79;100.00;63287.88;4994208;28;20088;-76
2021/08/28 06:00:07;;;;;;;15.60;10.05;;;;;;;-140.79;100.00;63287.88;5012831;28;20621;-75
2021/08/28 06:02:32;;;;;;;15.80;10.27;;;;;;;-140.79;100.00;63287.88;4987822;28;20228;-81
2021/08/28 06:04:58;;;;;;;17.15;10.95;;;;;;;-140.79;100.00;63287.88;4972842;28;20041;-75
2021/08/28 06:07:23;;;;;;;16.38;10.05;;;;;;;-140.79;100.00;63287.88;4995321;28;20041;-75
2021/08/28 06:09:49;;;;;;;13.73;9.57;;;;;;;-140.79;100.00;63287.88;4992160;28;20037;-76
2021/08/28 06:12:14;;;;;;;15.30;9.80;;;;;;;-140.79;100.00;63287.88;5003780;28;20029;-76
2021/08/28 06:14:40;;;;;;;15.13;10.00;;;;;;;-140.79;100.00;63287.88;5004569;28;20022;-77
2021/08/28 06:17:05;;;;;;;14.38;9.07;;;;;;;-140.79;100.00;63287.88;4991075;28;20029;-76
2021/08/28 06:19:31;;;;;;;14.32;9.98;;;;;;;-140.79;100.00;63287.88;4990478;28;20038;-75
2021/08/28 06:21:56;;;;;;;14.70;9.55;;;;;;;-140.79;100.00;63287.88;4997216;28;20053;-75
2021/08/28 06:24:22;;;;;;;16.40;9.38;;;;;;;-140.79;100.00;63287.88;4991145;28;20034;-75
2021/08/28 06:26:47;;;;;;;15.88;10.40;;;;;;;-140.79;100.00;63287.88;5000231;28;20033;-77
2021/08/28 06:29:12;;;;;;;14.07;9.70;;;;;;;-140.79;100.00;63287.88;5003793;28;20026;-76
2021/08/28 06:31:38;;;;;;;15.32;9.63;;;;;;;-140.79;100.00;63287.88;5002894;28;20026;-76
2021/08/28 06:34:03;;;;;;;14.27;9.35;;;;;;;-140.79;100.00;63287.88;5001383;28;20025;-76
2021/08/28 06:36:29;;;;;;;12.48;9.10;;;;;;;-140.79;100.00;63287.88;4998008;28;20026;-75
2021/08/28 06:38:54;;;;;;;15.35;9.23;;;;;;;-140.79;100.00;63287.88;4997927;28;20037;-75
2021/08/28 06:41:20;;;;;;;12.90;8.98;;;;;;;-140.79;100.00;63287.88;4979249;28;20038;-77
2021/08/28 06:43:45;;;;;;;15.25;9.68;;;;;;;-140.79;100.00;63287.88;5000240;28;20037;-77
2021/08/28 06:46:11;;;;;;;13.93;9.57;;;;;;;-140.79;100.00;63287.88;5001230;28;20030;-78
2021/08/28 06:48:36;;;;;;;13.23;9.00;;;;;;;-140.79;100.00;63287.88;5003096;28;20030;-77
2021/08/28 06:51:02;;;;;;;14.60;9.20;;;;;;;-140.79;100.00;63287.88;4988355;28;20069;-77
2021/08/28 06:53:27;;;;;;;13.23;9.18;;;;;;;-140.79;100.00;63287.88;4986718;28;20036;-75
2021/08/28 06:55:52;;;;;;;14.60;9.23;;;;;;;-140.79;100.00;63287.88;4999018;28;20677;-75
2021/08/28 06:58:18;;;;;;;13.82;9.75;;;;;;;-140.79;100.00;63287.88;4998766;28;20105;-75
2021/08/28 07:00:44;;;;;;;16.52;10.07;;;;;;;-140.79;100.00;63287.88;4996182;28;20053;-77
2021/08/28 07:03:09;;;;;;;13.05;8.77;;;;;;;-140.79;100.00;63287.88;4998235;28;20922;-77
2021/08/28 07:05:35;;;;;;;12.40;8.90;;;;;;;-140.79;100.00;63287.88;4998593;28;20026;-77
2021/08/28 07:08:00;;;;;;;15.80;9.75;;;;;;;-140.79;100.00;63287.88;4996944;28;20109;-76
2021/08/28 07:10:26;;;;;;;14.95;9.75;;;;;;;-140.79;100.00;63287.88;4992387;28;20034;-77
2021/08/28 07:12:51;;;;;;;15.48;9.48;;;;;;;-140.79;100.00;63287.88;4995153;28;20034;-76
2021/08/28 07:15:17;;;;;;;14.52;9.55;;;;;;;-140.79;100.00;63287.88;4995943;28;20029;-75
2021/08/28 07:17:42;;;;;;;14.80;9.68;;;;;;;-140.79;100.00;63287.88;4997937;28;20416;-75
2021/08/28 07:20:08;;;;;;;15.65;9.88;;;;;;;-140.79;100.00;63287.88;4995712;28;20025;-78
2021/08/28 07:22:33;;;;;;;15.65;9.68;;;;;;;-140.79;100.00;63287.88;5008244;28;20029;-81
2021/08/28 07:24:59;;;;;;;15.32;8.90;;;;;;;-140.79;100.00;63287.88;4998344;28;20040;-79
2021/08/28 07:27:25;;;;;;;13.63;9.55;;;;;;;-140.79;100.00;63287.88;5001294;28;20018;-76
2021/08/28 07:29:50;;;;;;;15.15;10.13;;;;;;;-140.79;100.00;63287.88;5005463;28;20116;-76
2021/08/28 07:32:16;;;;;;;14.15;9.80;;;;;;;-140.79;100.00;63287.88;5006374;28;20026;-77
2021/08/28 07:34:41;;;;;;;17.88;10.60;;;;;;;-140.79;100.00;63287.88;5003820;28;20021;-76
2021/08/28 07:37:07;;;;;;;12.70;9.02;;;;;;;-140.79;100.00;63287.88;5005266;28;20520;-76
2021/08/28 07:39:33;;;;;;;15.10;10.25;;;;;;;-140.79;100.00;63287.88;5004251;28;20034;-78
2021/08/28 07:41:58;;;;;;;13.77;9.85;;;;;;;-140.79;100.00;63287.88;5006125;28;20077;-78
2021/08/28 07:44:24;;;;;;;14.77;10.38;;;;;;;-140.79;100.00;63287.88;5006175;28;20030;-75
2021/08/28 07:46:49;;;;;;;16.02;10.70;;;;;;;-140.79;100.00;63287.88;5007187;28;20102;-74
2021/08/28 07:49:15;;;;;;;15.27;10.10;;;;;;;-140.79;100.00;63287.88;5007622;28;20022;-75
2021/08/28 07:51:40;;;;;;;15.52;10.40;;;;;;;-140.79;100.00;63287.88;5006204;28;20030;-75
2021/08/28 07:54:06;;;;;;;14.75;10.02;;;;;;;-140.79;100.00;63287.88;5007147;28;20022;-75
2021/08/28 07:56:31;;;;;;;15.27;10.18;;;;;;;-140.79;100.00;63287.88;5005071;28;20480;-76
2021/08/28 07:58:57;;;;;;;14.98;9.70;;;;;;;-140.79;100.00;63287.88;5002971;28;20524;-78
2021/08/28 08:01:22;;;;;;;16.08;9.90;;;;;;;-140.79;100.00;63287.88;4993968;28;20056;-75
2021/08/28 08:03:48;;;;;;;15.32;10.65;;;;;;;-140.79;100.00;63287.88;5007433;28;20021;-76
2021/08/28 08:06:13;;;;;;;16.45;10.18;;;;;;;-140.79;100.00;63287.88;5006459;28;20049;-75
2021/08/28 08:08:39;;;;;;;14.88;10.13;;;;;;;-140.79;100.00;63287.88;4999497;28;20133;-77
2021/08/28 08:11:04;;;;;;;14.35;10.00;;;;;;;-140.79;100.00;63287.88;5030163;28;20022;-76
2021/08/28 08:13:29;;;;;;;16.70;10.30;;;;;;;-140.79;100.00;63287.88;5032303;28;20026;-76
2021/08/28 08:15:58;;;;;;;14.27;9.85;;;;;;;-140.79;100.00;63287.88;5024282;28;20052;-78
2021/08/28 08:18:23;;;;;;;14.90;10.25;;;;;;;-140.79;100.00;63287.88;5004330;28;20056;-77
2021/08/28 08:20:49;;;;;;;14.40;10.45;;;;;;;-140.79;100.00;63287.88;5000212;28;20030;-75
2021/08/28 08:23:14;;;;;;;17.05;10.80;;;;;;;-140.79;100.00;63287.88;5005262;28;20029;-79
2021/08/28 08:25:40;;;;;;;17.67;10.35;;;;;;;-140.79;100.00;63287.88;5015051;28;20030;-78
2021/08/28 08:28:05;;;;;;;13.65;9.27;;;;;;;-140.79;100.00;63287.88;5016382;28;20029;-79
2021/08/28 08:30:31;;;;;;;16.60;10.02;;;;;;;-140.79;100.00;63287.88;5014271;28;20105;-78
2021/08/28 08:32:57;;;;;;;19.55;10.88;;;;;;;-140.79;100.00;63287.88;5015731;28;20068;-77
2021/08/28 08:35:22;;;;;;;19.30;11.60;;;;;;;-140.79;100.00;63287.88;5010837;28;20036;-78
2021/08/28 08:37:48;;;;;;;15.52;10.13;;;;;;;-140.79;100.00;63287.88;5006925;28;20685;-77
2021/08/28 08:40:14;;;;;;;12.98;9.73;;;;;;;-140.79;100.00;63287.88;5006325;28;20033;-77
2021/08/28 08:42:40;;;;;;;15.68;10.45;;;;;;;-140.79;100.00;63287.88;5009393;28;20041;-79
2021/08/28 08:45:06;;;;;;;13.93;10.15;;;;;;;-140.79;100.00;63287.88;4988232;28;20038;-77
2021/08/28 08:47:32;;;;;;;16.25;10.52;;;;;;;-140.79;100.00;63287.88;5006256;28;20030;-77
2021/08/28 08:49:58;;;;;;;15.63;10.35;;;;;;;-140.79;100.00;63287.88;5006482;28;20018;-80
2021/08/28 08:52:23;;;;;;;17.88;10.95;;;;;;;-140.79;100.00;63287.88;5002587;28;20026;-80
2021/08/28 08:54:49;;;;;;;15.63;11.07;;;;;;;-140.79;100.00;63287.88;5000224;28;20033;-79
2021/08/28 08:57:15;;;;;;;16.38;11.02;;;;;;;-140.79;100.00;63287.88;4998756;28;20029;-80
2021/08/28 08:59:40;;;;;;;15.23;10.60;;;;;;;-140.79;100.00;63287.88;4986128;28;20095;-76
2021/08/28 09:02:06;;;;;;;15.85;11.40;;;;;;;-140.79;100.00;63287.88;4999504;28;20041;-76
2021/08/28 09:04:31;;;;;;;16.95;10.93;;;;;;;-140.79;100.00;63287.88;5003034;28;20820;-75
2021/08/28 09:06:57;;;;;;;17.38;11.20;;;;;;;-140.79;100.00;63287.88;5004834;28;20040;-75
2021/08/28 09:09:23;;;;;;;14.88;10.43;;;;;;;-140.79;100.00;63287.88;5005259;28;20030;-76
2021/08/28 09:12:03;;;;;;;16.50;10.55;;;;;;;-140.79;100.00;63287.88;5002405;28;20037;-74
2021/08/28 09:14:28;;;;;;;;;;;;;;;-140.79;100.00;63287.88;5001050;28;20026;-73
2021/08/28 09:16:54;;;;;;;14.18;9.93;;;;;;;-140.79;100.00;63287.88;5003092;28;19932;-73
2021/08/28 09:19:37;;;;;;;17.70;11.20;;;;;;;-140.79;100.00;63287.88;5002362;28;20072;-73
2021/08/28 09:22:05;;;;;;;17.65;11.05;;;;;;;-140.79;100.00;63287.88;5002368;28;20040;-76
2021/08/28 09:24:41;;;;;;;15.63;9.95;;;;;;;-140.79;100.00;63287.88;5004051;28;20026;-76
2021/08/28 09:27:06;;;;;;;16.17;10.23;;;;;;;-140.79;100.00;63287.88;4999090;28;20149;-75
2021/08/28 09:29:32;;;;;;;15.10;9.98;;;;;;;-140.79;100.00;63287.88;5005303;28;20129;-71
2021/08/28 09:31:57;;;;;;;14.90;9.82;;;;;;;-140.79;100.00;63287.88;5001854;28;20673;-77
2021/08/28 09:34:27;;;;;;;16.67;10.55;;;;;;;-140.79;100.00;63287.88;5003456;28;20022;-76
2021/08/28 09:36:59;;;;;;;18.42;11.13;;;;;;;-140.79;100.00;63287.88;5004496;28;20377;-75
2021/08/28 09:39:43;;;;;;;14.80;9.35;;;;;;;-140.79;100.00;63287.88;5004849;28;20308;-74
2021/08/28 09:42:11;;;;;;;16.13;11.05;;;;;;;-140.79;100.00;63287.88;4991816;28;20041;-78
2021/08/28 09:44:41;;;;;;;14.93;9.70;;;;;;;-140.79;100.00;63287.88;5001336;28;20054;-76
2021/08/28 09:47:09;;;;;;;14.52;10.38;;;;;;;-140.79;100.00;63287.88;5003058;28;20036;-77
2021/08/28 09:49:34;;;;;;;18.13;11.60;;;;;;;-140.79;100.00;63287.88;5005085;28;20050;-78
2021/08/28 09:51:59;;;;;;;16.20;11.18;;;;;;;-140.79;100.00;63287.88;5004652;28;20038;-76
2021/08/28 09:54:25;;;;;;;14.75;9.95;;;;;;;-140.79;100.00;63287.88;5005763;28;20029;-79
2021/08/28 09:57:03;;;;;;;14.80;11.32;;;;;;;-140.79;100.00;63287.88;4993702;28;20480;-81
2021/08/28 09:59:29;;;;;;;19.40;11.48;;;;;;;-140.79;100.00;63287.88;5000398;28;20045;-78
2021/08/28 10:01:54;;;;;;;16.02;11.60;;;;;;;-140.79;100.00;63287.88;5004426;28;20635;-75
2021/08/28 10:04:19;;;;;;;17.17;11.45;;;;;;;-140.79;100.00;63287.88;5003429;28;20072;-78
2021/08/28 10:06:46;;;;;;;16.83;11.77;;;;;;;-140.79;100.00;63287.88;4999146;28;20030;-79
2021/08/28 10:09:12;;;;;;;14.30;10.02;;;;;;;-140.79;100.00;63287.88;5003968;28;20037;-79
2021/08/28 10:11:38;;;;;;;17.08;11.27;;;;;;;-140.79;100.00;63287.88;4980087;28;20549;-75
2021/08/28 10:14:03;;;;;;;15.82;11.23;;;;;;;-140.79;100.00;63287.88;5002093;28;20022;-75
2021/08/28 10:16:29;;;;;;;15.15;10.57;;;;;;;-140.79;100.00;63287.88;4998291;28;20084;-80
2021/08/28 10:18:54;;;;;;;16.52;10.50;;;;;;;-140.79;100.00;63287.88;5003582;28;20477;-78
2021/08/28 10:21:19;;;;;;;15.93;10.50;;;;;;;-140.79;100.00;63287.88;5004430;28;20041;-76
2021/08/28 10:23:48;;;;;;;14.07;10.20;;;;;;;-140.79;100.00;63287.88;5004886;28;20034;-79
2021/08/28 10:26:14;;;;;;;15.30;10.25;;;;;;;-140.79;100.00;63287.88;4986819;28;20037;-76
2021/08/28 10:28:39;;;;;;;13.80;10.75;;;;;;;-140.79;100.00;63287.88;4989186;28;20480;-76
2021/08/28 10:31:06;;;;;;;14.95;10.50;;;;;;;-140.79;100.00;63287.88;5000440;28;20038;-76
2021/08/28 10:33:32;;;;;;;14.10;10.25;;;;;;;-140.79;100.00;63287.88;4988928;28;20508;-74
2021/08/28 10:35:57;;;;;;;15.45;10.05;;;;;;;-140.79;100.00;63287.88;4989955;28;20061;-75
2021/08/28 10:38:22;;;;;;;14.02;10.10;;;;;;;-140.79;100.00;63287.88;4978565;28;20067;-75
2021/08/28 10:40:51;;;;;;;15.00;10.02;;;;;;;-140.79;100.00;63287.88;4992027;28;20049;-76
2021/08/28 10:43:17;;;;;;;17.83;11.80;;;;;;;-140.79;100.00;63287.88;5002662;28;20038;-75
2021/08/28 10:45:46;;;;;;;16.00;10.95;;;;;;;-140.79;100.00;63287.88;5000731;28;20332;-77
2021/08/28 10:48:13;;;;;;;17.25;11.23;;;;;;;-140.79;100.00;63287.88;5002247;28;20034;-73
2021/08/28 10:50:39;;;;;;;15.05;10.88;;;;;;;-140.79;100.00;63287.88;4997362;28;20448;-73
2021/08/28 10:53:05;;;;;;;13.93;9.63;;;;;;;-140.79;100.00;63287.88;5006229;28;20072;-79
2021/08/28 10:55:38;;;;;;;15.70;11.07;;;;;;;-140.79;100.00;63287.88;5006913;28;20033;-78